Flight Track Log - Related Links

Times and Time Zones

All times are in EDT time to prevent confusion due to time zone crossing. See the SKW5510 flight status page for this flight to view local times or setup timezone preferences in your user account.

Time Position Orientation Groundspeed Altitude Reporting Facility
EDT Latitude Longitude Course Direction KTS MPH feet Rate Location/Type
Sun 07:05:42 PM 36.1953 -95.8633 60° Northeast 165 190 1,600  Level Kansas City Center
Sun 07:06:55 PM 36.2206 -95.7903 67° East 226 260 4,600 2,505 Climbing Kansas City Center
Sun 07:07:13 PM 36.2306 -95.7686 60° Northeast 224 258 5,400 2,561 Climbing Kansas City Center
Sun 07:08:17 PM 36.2700 -95.6875 59° Northeast 263 303 8,100 2,496 Climbing Kansas City Center
Sun 07:09:00 PM 36.4057 -95.4359 64° Northeast  Level FlightAware Approximate
Sun 07:09:18 PM 36.3114 -95.5994 60° Northeast 291 335 10,600  Level Kansas City Center
Sun 07:10:00 PM 36.4534 -95.3167 64° Northeast  Level FlightAware Approximate
Sun 07:10:18 PM 36.3547 -95.5069 60° Northeast 307 353 12,800  Level Kansas City Center
Sun 07:11:00 PM 36.5105 -95.2071 60° Northeast  Level FlightAware Approximate
Sun 07:11:21 PM 36.4036 -95.4056 59° Northeast 330 380 15,000  Level Kansas City Center
Sun 07:12:24 PM 36.4614 -95.2833 60° Northeast 343 395 17,400 1,935 Climbing Kansas City Center
Sun 07:13:25 PM 36.5125 -95.1761 59° Northeast 355 409 19,000 1,561 Climbing Kansas City Center
Sun 07:14:27 PM 36.5606 -95.0742 60° Northeast 363 418 20,600 1,645 Climbing Kansas City Center
Sun 07:15:29 PM 36.6247 -94.9378 60° Northeast 372 428 22,400 1,597 Climbing Kansas City Center
Sun 07:16:31 PM 36.6803 -94.8214 59° Northeast 382 440 23,900 1,333 Climbing Kansas City Center
Sun 07:17:35 PM 36.7356 -94.7028 60° Northeast 389 448 25,200 1,152 Climbing Kansas City Center
Sun 07:18:36 PM 36.7914 -94.5817 60° Northeast 396 456 26,300 1,082 Climbing Kansas City Center
Sun 07:19:37 PM 36.8483 -94.4589 60° Northeast 402 463 27,400 1,082 Climbing Kansas City Center
Sun 07:20:38 PM 36.9044 -94.3350 60° Northeast 408 470 28,500 1,008 Climbing Kansas City Center
Sun 07:21:42 PM 36.9619 -94.2108 60° Northeast 410 472 29,500 871 Climbing Kansas City Center
Sun 07:22:42 PM 37.0658 -94.1033 40° Northeast 402 463 30,300 726 Climbing Kansas City Center
Sun 07:23:46 PM 37.1442 -94.0167 41° Northeast 404 465 31,000 672 Climbing Kansas City Center
Sun 07:24:47 PM 37.2314 -93.9239 40° Northeast 407 468 31,700 689 Climbing Kansas City Center
Sun 07:25:48 PM 37.3169 -93.8294 41° Northeast 408 470 32,400 619 Climbing Kansas City Center
Sun 07:26:53 PM 37.4206 -93.7169 41° Northeast 408 470 33,000 286 Climbing Kansas City Center
Sun 07:27:54 PM 37.5067 -93.6194 42° Northeast 413 475 33,000  Level Kansas City Center
Sun 07:28:54 PM 37.5978 -93.5192 41° Northeast 426 490 33,000  Level Kansas City Center
Sun 07:29:58 PM 37.6897 -93.4167 41° Northeast 435 501 33,000  Level Kansas City Center
Sun 07:30:58 PM 37.7822 -93.3136 41° Northeast 440 506 33,000  Level Kansas City Center
Sun 07:32:01 PM 37.8769 -93.2067 42° Northeast 449 517 33,000  Level Kansas City Center
Sun 07:33:03 PM 37.9719 -93.1008 41° Northeast 451 519 33,000  Level Kansas City Center
Sun 07:34:07 PM 38.0669 -92.9936 42° Northeast 453 521 33,000  Level Kansas City Center
Sun 07:35:07 PM 38.1803 -92.8653 42° Northeast 450 518 33,000  Level Kansas City Center
Sun 07:36:11 PM 38.2744 -92.7606 41° Northeast 447 514 33,000  Level Kansas City Center
Sun 07:37:12 PM 38.3681 -92.6528 42° Northeast 446 513 33,000  Level Kansas City Center
Sun 07:38:15 PM 38.4608 -92.5453 42° Northeast 446 513 33,000  Level Kansas City Center
Sun 07:39:17 PM 38.5542 -92.4397 41° Northeast 445 512 33,000  Level Kansas City Center
Sun 07:40:17 PM 38.6461 -92.3314 43° Northeast 445 512 33,000  Level Kansas City Center
Sun 07:41:20 PM 38.7383 -92.2267 42° Northeast 442 509 33,000  Level Kansas City Center
Sun 07:42:23 PM 38.8303 -92.1189 42° Northeast 445 512 33,000  Level Kansas City Center
Sun 07:43:24 PM 38.9417 -91.9889 42° Northeast 446 513 33,000  Level Kansas City Center
Sun 07:44:25 PM 39.0333 -91.8817 42° Northeast 445 512 33,000  Level Kansas City Center
Sun 07:45:29 PM 39.1267 -91.7733 42° Northeast 447 514 33,000  Level Kansas City Center
Sun 07:46:30 PM 39.2228 -91.6592 43° Northeast 448 516 33,000  Level Kansas City Center
Sun 07:47:31 PM 39.3169 -91.5506 42° Northeast 451 519 33,000  Level Kansas City Center
Sun 07:48:35 PM 39.4089 -91.4408 43° Northeast 452 520 33,000  Level Kansas City Center
Sun 07:49:35 PM 39.5006 -91.3314 43° Northeast 449 517 33,000  Level Kansas City Center
Sun 07:50:39 PM 39.5925 -91.2222 42° Northeast 447 514 33,000  Level Kansas City Center
Sun 07:51:41 PM 39.6850 -91.1117 43° Northeast 450 518 33,000  Level Kansas City Center
Sun 07:52:41 PM 39.7967 -90.9922 39° Northeast 451 519 33,000  Level Kansas City Center
Sun 07:53:45 PM 39.9033 -90.8881 37° Northeast 448 516 33,000  Level Kansas City Center
Sun 07:54:45 PM 40.0031 -90.7864 38° Northeast 453 521 33,000  Level Kansas City Center
Sun 07:55:47 PM 40.1014 -90.6869 38° Northeast 449 517 33,000  Level Kansas City Center
Sun 07:56:46 PM 40.2000 -90.5856 38° Northeast 450 518 33,000  Level Chicago Center
Sun 07:57:48 PM 40.2994 -90.4856 37° Northeast 450 518 33,000  Level Chicago Center
Sun 07:58:50 PM 40.3983 -90.3828 38° Northeast 452 520 33,000  Level Chicago Center
Sun 07:59:52 PM 40.4983 -90.2808 38° Northeast 452 520 33,000  Level Chicago Center
Sun 08:00:54 PM 40.5944 -90.1769 39° Northeast 444 511 33,000  Level Chicago Center
Sun 08:01:56 PM 40.7136 -90.0544 38° Northeast 450 518 33,000 -968 Level Chicago Center
Sun 08:02:58 PM 40.8186 -89.9506 37° Northeast 464 534 31,000 -1,935 Descending Chicago Center
Sun 08:04:00 PM 40.9208 -89.8394 39° Northeast 473 544 29,000 -2,129 Descending Chicago Center
Sun 08:05:02 PM 41.0297 -89.7272 38° Northeast 465 535 26,600 -2,177 Descending Chicago Center
Sun 08:06:04 PM 41.1261 -89.6250 39° Northeast 446 513 24,500 -1,887 Descending Chicago Center
Sun 08:07:06 PM 41.1950 -89.5042 53° Northeast 421 484 22,700 -1,790 Descending Chicago Center
Sun 08:08:08 PM 41.2486 -89.3725 62° Northeast 407 468 20,800 -1,984 Descending Chicago Center
Sun 08:09:10 PM 41.3019 -89.2411 62° Northeast 405 466 18,600 -2,129 Descending Chicago Center
Sun 08:10:12 PM 41.3581 -89.0972 63° Northeast 401 461 16,400 -2,129 Descending Chicago Center
Sun 08:11:14 PM 41.4103 -88.9669 62° Northeast 399 459 14,200 -2,032 Descending Chicago Center
Sun 08:12:16 PM 41.4594 -88.8417 62° Northeast 385 443 12,200 -1,548 Descending Chicago Center
Sun 08:13:18 PM 41.5081 -88.7214 62° Northeast 373 429 11,000 -581 Descending Chicago Center
Sun 08:14:20 PM 41.5567 -88.5950 63° Northeast 325 374 11,000 -290 Level Chicago Center
Sun 08:15:22 PM 41.5964 -88.4972 61° Northeast 305 351 10,400 -1,016 Descending Chicago Center
Sun 08:16:24 PM 41.6417 -88.4097 55° Northeast 289 333 8,900 -1,161 Descending Chicago Center
Sun 08:17:26 PM 41.7000 -88.3494 38° Northeast 277 319 8,000 -435 Descending Chicago Center
Sun 08:18:28 PM 41.7761 -88.3158 18° North 285 328 8,000 -968 Level Chicago Center
Sun 08:19:30 PM 41.8475 -88.3033 North 270 311 6,000 -1,452 Descending Chicago Center
Sun 08:20:32 PM 41.9319 -88.2856 North 277 319 5,000 -629 Descending Chicago Center
Sun 08:21:34 PM 41.9592 -88.2061 65° Northeast 248 285 4,700 -634 Descending Chicago Center
Sun 08:22:35 PM 41.9683 -88.1244 81° East 232 267 3,700 -984 Descending Chicago Center

Login

Don't have an account? Register now (free) for customized features, flight alerts, and more!